首页
METAR-TAF:

METAR-TAF

机场 :

底特律都会韦恩县机场

底特律, 密歇根州, 美国

纬度: 42-13-53N, 经度: 083-19-51W, 海拔: 194米

当前天气观测

该预报发布于1小时和5分钟前的08:53 UTC
风速14节,风向西北,有时为22节阵风
温度 -7°C
湿度 67%
气压 1011 hPa
能見度: 12.9公里
散云层高于14000英尺
多云层高于22000英尺

METAR: KDTW 270853Z 31014G22KT 8SM SCT140 BKN220 M07/M12 A2986 RMK AO2 SLP120 60000 T10671117 51002 $

时间: 04:58 (09:58 UTC)

预报

该预报发布于41分钟前的09:17 UTC
预报有效从27日的 09点(UTC)到 28日的 12点(UTC)
风速14节,风向西北,有时为24节阵风
能見度: 10公里
阴天层高于3500英尺
从 27日的 1300点(UTC)
风速18节,风向西转西北,有时为28节阵风
能見度: 10公里
散云层高于2500英尺
阴天层高于3500英尺
几率 30%
从 27日的 18点(UTC)到 27日的 21点(UTC)
能見度: 2.4公里
阴天层高于1500英尺
小阵雪

TAF: KDTW 270917Z 2709/2812 31014G24KT P6SM OVC035 FM271300 29018G28KT P6SM SCT025 OVC035 PROB30 2718/2721 1 1/2SM -SHSN OVC015

超过4000个机场的气象观测和天气预报(METAR&TAF报告)。

可查询的气象台以黄色和红色小点在地图上表示。

将鼠标移到小点上方,可查看气象台名称。

然后点击查看天气观测和预报。

如需切换地图:点击带黑十字的绿色按钮放大地图;点击带横线的绿色按钮缩小地图;或者点击绿色箭头查看邻近地区的地图。


METAR-TAF: